createdAt,value
2023-05-14T00:01:02.845Z,12.21
2023-05-14T00:03:29.529Z,12.18
2023-05-14T00:05:56.267Z,12.11
2023-05-14T00:08:22.981Z,12.01
2023-05-14T00:10:49.604Z,12.13
2023-05-14T00:13:16.219Z,12.17
2023-05-14T00:15:42.935Z,11.99
2023-05-14T00:18:12.176Z,12.13
2023-05-14T00:20:38.938Z,12.00
2023-05-14T00:23:05.578Z,12.01
2023-05-14T00:25:32.358Z,11.94
2023-05-14T00:27:59.074Z,11.66
2023-05-14T00:30:25.774Z,11.65
2023-05-14T00:32:52.734Z,11.79
2023-05-14T00:35:20.507Z,11.96
2023-05-14T00:37:47.488Z,11.82
2023-05-14T00:40:14.185Z,11.77
2023-05-14T00:42:41.042Z,11.52
2023-05-14T00:45:08.167Z,11.59
2023-05-14T00:47:39.338Z,11.65
2023-05-14T00:50:06.634Z,11.62
2023-05-14T00:52:33.284Z,11.67
2023-05-14T00:55:00.009Z,11.72
2023-05-14T00:57:26.706Z,11.70
2023-05-14T00:59:53.965Z,11.50
2023-05-14T01:02:20.774Z,11.59
2023-05-14T01:04:47.598Z,11.59
2023-05-14T01:07:27.191Z,11.61
2023-05-14T01:10:02.882Z,11.52
2023-05-14T01:12:50.619Z,11.33
2023-05-14T01:15:25.564Z,11.21
2023-05-14T01:17:54.913Z,11.38
2023-05-14T01:20:22.102Z,11.32
2023-05-14T01:22:48.996Z,11.36
2023-05-14T01:25:15.763Z,11.14
2023-05-14T01:27:54.677Z,11.26
2023-05-14T01:30:34.645Z,11.39
2023-05-14T01:33:03.618Z,11.44
2023-05-14T01:35:30.743Z,11.36
2023-05-14T01:37:58.620Z,11.51
2023-05-14T01:40:25.633Z,11.63
2023-05-14T01:42:52.937Z,11.45
2023-05-14T01:45:23.367Z,11.23
2023-05-14T01:47:50.779Z,11.32
2023-05-14T01:50:17.627Z,11.15
2023-05-14T01:52:44.425Z,11.14
2023-05-14T01:55:11.153Z,10.83
2023-05-14T01:57:37.816Z,11.02
2023-05-14T02:00:04.978Z,11.19
2023-05-14T02:02:31.761Z,10.95
2023-05-14T02:04:58.417Z,11.12
2023-05-14T02:07:25.242Z,11.16
2023-05-14T02:09:51.911Z,11.16
2023-05-14T02:12:18.495Z,11.15
2023-05-14T02:14:45.238Z,11.06
2023-05-14T02:17:11.872Z,11.00
2023-05-14T02:19:38.566Z,10.85
2023-05-14T02:22:05.450Z,10.79
2023-05-14T02:24:32.062Z,10.78
2023-05-14T02:27:01.019Z,10.88
2023-05-14T02:29:27.942Z,10.74
2023-05-14T02:31:54.581Z,10.77
2023-05-14T02:34:21.265Z,10.81
2023-05-14T02:36:47.963Z,10.83
2023-05-14T02:39:14.573Z,10.83
2023-05-14T02:41:41.285Z,10.76
2023-05-14T02:44:07.944Z,10.77
2023-05-14T02:46:35.105Z,10.65
2023-05-14T02:49:02.969Z,10.66
2023-05-14T02:51:29.615Z,10.74
2023-05-14T02:53:56.282Z,10.58
2023-05-14T02:56:22.914Z,10.31
2023-05-14T02:58:49.545Z,10.23
2023-05-14T03:01:16.711Z,10.25
2023-05-14T03:03:43.983Z,10.21
2023-05-14T03:06:11.016Z,10.21
2023-05-14T03:08:37.695Z,10.06
2023-05-14T03:11:04.414Z,10.02
2023-05-14T03:13:31.145Z,10.06
2023-05-14T03:15:57.860Z,9.95
2023-05-14T03:18:24.478Z,10.01
2023-05-14T03:20:51.210Z,9.99
2023-05-14T03:23:17.878Z,10.02
2023-05-14T03:25:44.622Z,10.16
2023-05-14T03:28:11.282Z,10.12
2023-05-14T03:30:37.977Z,10.18
2023-05-14T03:33:04.773Z,10.19
2023-05-14T03:35:31.598Z,10.28
2023-05-14T03:37:59.357Z,10.33
2023-05-14T03:40:26.241Z,10.41
2023-05-14T03:42:53.001Z,10.13
2023-05-14T03:45:19.857Z,10.03
2023-05-14T03:47:47.829Z,10.00
2023-05-14T03:50:14.544Z,10.04
2023-05-14T03:52:41.375Z,10.16
2023-05-14T03:55:08.390Z,10.35
2023-05-14T03:57:35.267Z,10.00
2023-05-14T04:00:01.974Z,10.16
2023-05-14T04:02:28.609Z,10.05
2023-05-14T04:04:55.523Z,10.06
2023-05-14T04:07:22.378Z,10.07
2023-05-14T04:09:49.232Z,10.00
2023-05-14T04:12:15.872Z,10.15
2023-05-14T04:14:42.589Z,10.23
2023-05-14T04:17:09.226Z,10.27
2023-05-14T04:19:35.880Z,10.28
2023-05-14T04:22:02.526Z,10.48
2023-05-14T04:24:29.139Z,10.01
2023-05-14T04:26:55.783Z,10.18
2023-05-14T04:29:22.482Z,10.10
2023-05-14T04:31:49.711Z,10.05
2023-05-14T04:34:16.320Z,10.10
2023-05-14T04:36:43.041Z,10.18
2023-05-14T04:39:12.955Z,10.32
2023-05-14T04:41:39.587Z,9.90
2023-05-14T04:44:06.272Z,9.81
2023-05-14T04:46:33.031Z,10.01
2023-05-14T04:48:59.730Z,10.03
2023-05-14T04:51:26.413Z,9.90
2023-05-14T04:53:53.164Z,9.95
2023-05-14T04:56:19.724Z,9.94
2023-05-14T04:58:46.340Z,9.96
2023-05-14T05:01:13.103Z,9.73
2023-05-14T05:03:39.953Z,9.73
2023-05-14T05:06:07.184Z,9.78
2023-05-14T05:08:33.879Z,9.80
2023-05-14T05:11:00.622Z,9.78
2023-05-14T05:13:27.371Z,9.80
2023-05-14T05:15:54.084Z,9.85
2023-05-14T05:18:20.920Z,9.50
2023-05-14T05:20:47.863Z,9.58
2023-05-14T05:23:14.560Z,9.62
2023-05-14T05:25:41.248Z,9.88
2023-05-14T05:28:07.939Z,9.82
2023-05-14T05:30:34.645Z,9.63
2023-05-14T05:33:01.406Z,9.89
2023-05-14T05:35:28.192Z,9.36
2023-05-14T05:37:55.024Z,9.42
2023-05-14T05:40:21.918Z,9.42
2023-05-14T05:42:48.727Z,9.38
2023-05-14T05:45:15.418Z,9.41
2023-05-14T05:47:42.146Z,9.48
2023-05-14T05:50:09.843Z,9.43
2023-05-14T05:52:36.613Z,9.53
2023-05-14T05:55:03.816Z,9.43
2023-05-14T05:57:30.478Z,9.14
2023-05-14T05:59:57.204Z,9.33
2023-05-14T06:02:25.200Z,8.82
2023-05-14T06:04:53.223Z,8.92
2023-05-14T06:07:20.011Z,9.30
2023-05-14T06:09:46.719Z,9.36
2023-05-14T06:12:13.324Z,9.29
2023-05-14T06:14:39.999Z,9.08
2023-05-14T06:17:06.866Z,8.81
2023-05-14T06:19:34.156Z,8.74
2023-05-14T06:22:00.854Z,8.63
2023-05-14T06:24:27.458Z,9.02
2023-05-14T06:26:54.176Z,8.99
2023-05-14T06:29:21.044Z,8.91
2023-05-14T06:31:47.852Z,9.02
2023-05-14T06:34:14.561Z,9.20
2023-05-14T06:36:41.337Z,8.88
2023-05-14T06:39:07.969Z,8.79
2023-05-14T06:41:34.557Z,8.92
2023-05-14T06:44:01.191Z,9.12
2023-05-14T06:46:27.815Z,9.05
2023-05-14T06:48:54.813Z,8.67
2023-05-14T06:51:22.409Z,9.05
2023-05-14T06:53:49.088Z,9.42
2023-05-14T06:56:15.803Z,9.53
2023-05-14T06:58:42.436Z,9.44
2023-05-14T07:01:09.248Z,9.39
2023-05-14T07:03:36.034Z,9.52
2023-05-14T07:06:02.761Z,9.58
2023-05-14T07:08:29.366Z,9.61
2023-05-14T07:10:57.430Z,9.83
2023-05-14T07:13:25.264Z,9.91
2023-05-14T07:15:55.595Z,9.92
2023-05-14T07:18:23.329Z,9.67
2023-05-14T07:20:50.080Z,9.60
2023-05-14T07:23:18.581Z,9.64
2023-05-14T07:25:46.631Z,9.64
2023-05-14T07:28:13.259Z,9.65
2023-05-14T07:30:40.060Z,9.79
2023-05-14T07:33:06.826Z,9.34
2023-05-14T07:35:33.571Z,9.66
2023-05-14T07:38:00.287Z,9.68
2023-05-14T07:40:27.416Z,9.63
2023-05-14T07:42:54.202Z,9.79
2023-05-14T07:45:20.912Z,9.58
2023-05-14T07:47:51.918Z,9.57
2023-05-14T07:50:19.079Z,9.48
2023-05-14T07:52:45.803Z,9.32
2023-05-14T07:55:12.729Z,9.42
2023-05-14T07:57:39.661Z,9.52
2023-05-14T08:00:09.808Z,9.21
2023-05-14T08:02:36.479Z,9.44
2023-05-14T08:05:04.098Z,9.59
2023-05-14T08:07:30.815Z,9.34
2023-05-14T08:09:57.493Z,9.27
2023-05-14T08:12:24.196Z,9.44
2023-05-14T08:14:50.929Z,9.48
2023-05-14T08:17:18.059Z,9.62
2023-05-14T08:19:44.762Z,9.61
2023-05-14T08:22:11.384Z,9.79
2023-05-14T08:24:38.146Z,9.67
2023-05-14T08:27:05.267Z,9.61
2023-05-14T08:29:31.923Z,9.60
2023-05-14T08:32:00.297Z,10.00
2023-05-14T08:34:28.766Z,10.00
2023-05-14T08:36:55.390Z,9.86
2023-05-14T08:39:22.058Z,10.05
2023-05-14T08:41:48.653Z,10.20
2023-05-14T08:44:27.145Z,10.02
2023-05-14T08:46:53.810Z,10.07
2023-05-14T08:49:40.839Z,10.16
2023-05-14T08:52:08.684Z,9.89
2023-05-14T08:54:35.428Z,10.01
2023-05-14T08:57:03.797Z,10.28
2023-05-14T08:59:30.901Z,10.52
2023-05-14T09:01:59.051Z,10.42
2023-05-14T09:04:25.781Z,10.41
2023-05-14T09:06:53.620Z,10.19
2023-05-14T09:09:22.973Z,10.11
2023-05-14T09:11:52.994Z,10.17
2023-05-14T09:14:19.774Z,10.20
2023-05-14T09:16:47.780Z,10.06
2023-05-14T09:19:15.608Z,9.94
2023-05-14T09:21:42.541Z,9.99
2023-05-14T09:24:09.224Z,10.21
2023-05-14T09:26:35.870Z,10.14
2023-05-14T09:29:02.778Z,10.03
2023-05-14T09:31:30.585Z,10.21
2023-05-14T09:33:57.253Z,10.19
2023-05-14T09:36:25.109Z,10.15
2023-05-14T09:38:51.770Z,10.20
2023-05-14T09:41:19.295Z,10.24
2023-05-14T09:43:45.904Z,10.28
2023-05-14T09:46:12.536Z,10.31
2023-05-14T09:48:39.333Z,10.38
2023-05-14T09:51:06.076Z,10.42
2023-05-14T09:53:33.226Z,10.55
2023-05-14T09:55:59.981Z,10.49
2023-05-14T09:58:26.799Z,10.31
2023-05-14T10:00:53.529Z,10.35
2023-05-14T10:03:20.462Z,10.39
2023-05-14T10:05:47.149Z,10.45
2023-05-14T10:08:17.625Z,10.44
2023-05-14T10:10:44.222Z,10.43
2023-05-14T10:13:14.930Z,10.42
2023-05-14T10:15:45.597Z,10.38
2023-05-14T10:18:13.545Z,10.33
2023-05-14T10:20:41.215Z,10.22
2023-05-14T10:23:07.868Z,10.24
2023-05-14T10:25:35.423Z,10.46
2023-05-14T10:28:02.082Z,10.48
2023-05-14T10:30:28.628Z,10.36
2023-05-14T10:33:15.509Z,10.33
2023-05-14T10:35:58.419Z,10.35
2023-05-14T10:38:28.759Z,10.19
2023-05-14T10:41:21.532Z,10.15
2023-05-14T10:43:48.153Z,10.22
2023-05-14T10:46:14.955Z,10.16
2023-05-14T10:48:43.509Z,10.28
2023-05-14T10:51:10.735Z,10.30
2023-05-14T10:53:39.028Z,10.40
2023-05-14T10:56:10.060Z,10.44
2023-05-14T10:58:44.381Z,10.54
2023-05-14T11:01:12.223Z,10.22
2023-05-14T11:03:43.401Z,10.20
2023-05-14T11:06:10.942Z,10.45
2023-05-14T11:08:37.987Z,10.69
2023-05-14T11:11:05.217Z,10.67
2023-05-14T11:13:33.000Z,10.67
2023-05-14T11:16:04.019Z,10.53
2023-05-14T11:18:38.732Z,10.68
2023-05-14T11:21:05.597Z,10.69
2023-05-14T11:23:32.623Z,10.79
2023-05-14T11:25:59.348Z,10.75
2023-05-14T11:28:26.466Z,10.73
2023-05-14T11:30:53.771Z,10.94
2023-05-14T11:33:20.642Z,10.90
2023-05-14T11:35:47.578Z,10.95
2023-05-14T11:38:18.260Z,10.75
2023-05-14T11:40:58.132Z,10.83
2023-05-14T11:43:25.201Z,10.63
2023-05-14T11:45:52.751Z,10.65
2023-05-14T11:48:23.082Z,10.51
2023-05-14T11:50:51.060Z,10.54
2023-05-14T11:53:25.320Z,10.67
2023-05-14T11:55:52.252Z,10.69
2023-05-14T11:58:19.081Z,10.59
2023-05-14T12:00:45.996Z,10.56
2023-05-14T12:03:12.822Z,10.58
2023-05-14T12:05:40.285Z,10.57
2023-05-14T12:08:22.881Z,10.56
2023-05-14T12:10:49.517Z,10.54
2023-05-14T12:13:17.400Z,10.70
2023-05-14T12:15:48.511Z,10.54
2023-05-14T12:18:24.017Z,10.66
2023-05-14T12:20:52.214Z,10.33
2023-05-14T12:23:39.145Z,10.46
2023-05-14T12:26:07.011Z,10.40
2023-05-14T12:28:37.978Z,10.37
2023-05-14T12:31:05.378Z,10.35
2023-05-14T12:33:32.190Z,10.35
2023-05-14T12:36:10.039Z,10.17
2023-05-14T12:38:41.340Z,10.23
2023-05-14T12:41:08.015Z,10.44
2023-05-14T12:43:34.732Z,10.22
2023-05-14T12:46:01.354Z,10.33
2023-05-14T12:48:28.034Z,10.25
2023-05-14T12:50:54.707Z,10.24
2023-05-14T12:53:21.350Z,10.30
2023-05-14T12:55:48.009Z,10.17
2023-05-14T12:58:14.608Z,10.23
2023-05-14T13:00:41.317Z,10.26
2023-05-14T13:03:08.103Z,10.32
2023-05-14T13:05:34.876Z,10.20
2023-05-14T13:08:03.784Z,9.99
2023-05-14T13:10:30.378Z,9.81
2023-05-14T13:12:58.225Z,9.84
2023-05-14T13:15:25.162Z,9.86
2023-05-14T13:17:52.027Z,9.83
2023-05-14T13:20:18.712Z,9.82
2023-05-14T13:22:45.387Z,9.81
2023-05-14T13:25:11.999Z,9.60
2023-05-14T13:27:38.680Z,9.73
2023-05-14T13:30:05.981Z,9.84
2023-05-14T13:32:32.629Z,9.88
2023-05-14T13:34:59.358Z,9.59
2023-05-14T13:37:26.447Z,9.66
2023-05-14T13:39:53.101Z,9.70
2023-05-14T13:42:19.761Z,9.85
2023-05-14T13:44:46.396Z,9.84
2023-05-14T13:47:13.140Z,9.77
2023-05-14T13:49:40.692Z,9.90
2023-05-14T13:52:07.680Z,9.86
2023-05-14T13:54:34.311Z,9.93
2023-05-14T13:57:00.980Z,9.94
2023-05-14T13:59:27.966Z,9.93
2023-05-14T14:01:54.893Z,9.84
2023-05-14T14:04:22.233Z,9.96
2023-05-14T14:06:49.241Z,9.84
2023-05-14T14:09:15.921Z,9.88
2023-05-14T14:11:42.749Z,10.10
2023-05-14T14:14:09.360Z,10.12
2023-05-14T14:16:36.317Z,10.08
2023-05-14T14:19:03.157Z,10.11
2023-05-14T14:21:29.976Z,9.90
2023-05-14T14:23:56.628Z,10.03
2023-05-14T14:26:23.442Z,10.17
2023-05-14T14:28:50.124Z,10.24
2023-05-14T14:31:17.069Z,10.28
2023-05-14T14:33:43.791Z,10.19
2023-05-14T14:36:10.420Z,10.17
2023-05-14T14:38:37.529Z,10.33
2023-05-14T14:41:04.292Z,10.32
2023-05-14T14:43:31.787Z,10.34
2023-05-14T14:45:58.501Z,10.37
2023-05-14T14:48:34.293Z,10.39
2023-05-14T14:51:03.685Z,10.35
2023-05-14T14:53:30.497Z,10.26
2023-05-14T14:55:57.652Z,10.32
2023-05-14T14:58:24.402Z,10.34
2023-05-14T15:00:55.708Z,9.84
2023-05-14T15:03:22.879Z,9.94
2023-05-14T15:05:49.737Z,10.06
2023-05-14T15:08:16.342Z,10.35
2023-05-14T15:10:43.204Z,10.21
2023-05-14T15:13:10.368Z,10.11
2023-05-14T15:15:37.525Z,9.92
2023-05-14T15:18:04.601Z,9.90
2023-05-14T15:20:31.296Z,10.04
2023-05-14T15:22:57.914Z,10.17
2023-05-14T15:25:24.831Z,10.24
2023-05-14T15:27:51.904Z,10.33
2023-05-14T15:30:18.673Z,10.33
2023-05-14T15:32:45.912Z,10.42
2023-05-14T15:35:12.708Z,10.47
2023-05-14T15:37:43.807Z,10.49
2023-05-14T15:40:11.436Z,10.51
2023-05-14T15:42:39.241Z,10.57
2023-05-14T15:45:06.155Z,10.48
2023-05-14T15:47:32.876Z,10.40
2023-05-14T15:50:00.000Z,10.06
2023-05-14T15:52:26.753Z,9.72
2023-05-14T15:54:54.374Z,9.59
2023-05-14T15:57:21.102Z,9.58
2023-05-14T15:59:47.880Z,9.69
2023-05-14T16:02:14.762Z,9.71
2023-05-14T16:04:41.359Z,9.81
2023-05-14T16:07:12.088Z,9.93
2023-05-14T16:09:39.139Z,9.96
2023-05-14T16:12:06.740Z,10.02
2023-05-14T16:14:34.197Z,10.22
2023-05-14T16:17:01.822Z,10.18
2023-05-14T16:19:28.866Z,10.00
2023-05-14T16:21:55.617Z,9.70
2023-05-14T16:24:22.200Z,9.57
2023-05-14T16:26:48.830Z,9.65
2023-05-14T16:29:15.936Z,9.58
2023-05-14T16:31:42.724Z,9.44
2023-05-14T16:34:09.416Z,9.37
2023-05-14T16:36:36.123Z,9.20
2023-05-14T16:41:32.428Z,9.10
2023-05-14T16:43:59.051Z,9.22
2023-05-14T16:46:26.153Z,9.30
2023-05-14T16:48:52.919Z,9.21
2023-05-14T16:51:19.669Z,9.15
2023-05-14T16:53:46.597Z,9.28
2023-05-14T16:56:13.189Z,9.46
2023-05-14T16:58:39.909Z,9.62
2023-05-14T17:01:09.277Z,9.61
2023-05-14T17:03:36.370Z,9.80
2023-05-14T17:06:04.639Z,10.06
2023-05-14T17:08:33.618Z,10.10
2023-05-14T17:11:00.457Z,10.05
2023-05-14T17:13:27.244Z,10.08
2023-05-14T17:15:53.978Z,10.13
2023-05-14T17:18:20.879Z,9.92
2023-05-14T17:20:47.537Z,9.67
2023-05-14T17:23:14.239Z,9.47
2023-05-14T17:25:40.884Z,9.80
2023-05-14T17:28:07.529Z,9.81
2023-05-14T17:30:34.155Z,9.93
2023-05-14T17:33:00.919Z,10.03
2023-05-14T17:35:27.844Z,10.16
2023-05-14T17:37:54.457Z,10.15
2023-05-14T17:40:21.103Z,9.98
2023-05-14T17:42:47.786Z,10.03
2023-05-14T17:45:15.506Z,10.11
2023-05-14T17:47:42.375Z,10.15
2023-05-14T17:50:09.336Z,9.94
2023-05-14T17:52:36.095Z,10.11
2023-05-14T17:55:02.898Z,9.85
2023-05-14T17:57:29.683Z,9.82
2023-05-14T17:59:56.398Z,9.82
2023-05-14T18:02:22.981Z,9.99
2023-05-14T18:04:49.674Z,9.92
2023-05-14T18:07:16.513Z,9.97
2023-05-14T18:09:43.196Z,10.00
2023-05-14T18:12:09.936Z,10.00
2023-05-14T18:14:36.639Z,9.92
2023-05-14T18:17:03.435Z,10.04
2023-05-14T18:19:30.223Z,9.85
2023-05-14T18:21:56.894Z,10.02
2023-05-14T18:24:23.487Z,10.13
2023-05-14T18:26:50.115Z,10.18
2023-05-14T18:29:16.907Z,10.42
2023-05-14T18:31:43.884Z,10.19
2023-05-14T18:34:10.714Z,10.28
2023-05-14T18:36:37.653Z,10.28
2023-05-14T18:39:04.405Z,10.45
2023-05-14T18:41:31.003Z,10.40
2023-05-14T18:43:58.064Z,10.24
2023-05-14T18:46:24.922Z,10.12
2023-05-14T18:48:51.625Z,9.99
2023-05-14T18:51:18.313Z,10.20
2023-05-14T18:53:45.026Z,10.12
2023-05-14T18:56:11.639Z,10.24
2023-05-14T18:58:38.365Z,10.28
2023-05-14T19:01:05.089Z,10.43
2023-05-14T19:03:31.870Z,10.56
2023-05-14T19:05:58.607Z,10.66
2023-05-14T19:08:25.277Z,10.37
2023-05-14T19:10:52.930Z,10.35
2023-05-14T19:13:19.617Z,10.24
2023-05-14T19:15:46.278Z,10.28
2023-05-14T19:18:13.920Z,10.38
2023-05-14T19:20:40.770Z,10.35
2023-05-14T19:23:07.418Z,10.15
2023-05-14T19:25:34.340Z,10.30
2023-05-14T19:28:03.627Z,10.35
2023-05-14T19:30:30.617Z,10.31
2023-05-14T19:32:57.338Z,10.17
2023-05-14T19:35:24.382Z,10.31
2023-05-14T19:37:51.168Z,10.32
2023-05-14T19:40:17.932Z,10.43
2023-05-14T19:42:44.623Z,10.24
2023-05-14T19:45:11.580Z,10.25
2023-05-14T19:47:38.436Z,10.37
2023-05-14T19:50:05.730Z,10.33
2023-05-14T19:52:32.310Z,10.26
2023-05-14T19:54:59.008Z,10.34
2023-05-14T19:57:26.755Z,10.35
2023-05-14T19:59:53.403Z,10.34
2023-05-14T20:02:22.033Z,10.28
2023-05-14T20:04:49.543Z,10.34
2023-05-14T20:07:16.288Z,10.39
2023-05-14T20:09:42.966Z,10.36
2023-05-14T20:12:09.660Z,10.46
2023-05-14T20:14:36.396Z,10.41
2023-05-14T20:17:03.327Z,10.43
2023-05-14T20:19:30.268Z,10.34
2023-05-14T20:21:56.976Z,10.38
2023-05-14T20:24:23.814Z,10.38
2023-05-14T20:26:50.513Z,10.43
2023-05-14T20:29:17.287Z,10.41
2023-05-14T20:31:43.949Z,10.18
2023-05-14T20:34:10.619Z,10.22
2023-05-14T20:36:37.503Z,10.09
2023-05-14T20:39:06.183Z,10.17
2023-05-14T20:41:32.808Z,10.25
2023-05-14T20:43:59.514Z,10.17
2023-05-14T20:46:26.226Z,10.14
2023-05-14T20:48:56.642Z,10.16
2023-05-14T20:51:23.406Z,10.27
2023-05-14T20:53:50.081Z,10.56
2023-05-14T20:56:16.752Z,10.32
2023-05-14T20:58:43.458Z,10.53
2023-05-14T21:01:10.364Z,10.41
2023-05-14T21:03:37.112Z,10.08
2023-05-14T21:06:03.913Z,10.31
2023-05-14T21:08:32.960Z,10.38
2023-05-14T21:10:59.663Z,10.14
2023-05-14T21:13:26.321Z,10.11
2023-05-14T21:15:52.980Z,10.10
2023-05-14T21:18:19.645Z,10.27
2023-05-14T21:20:46.393Z,10.39
2023-05-14T21:23:13.075Z,10.12
2023-05-14T21:25:39.666Z,10.13
2023-05-14T21:28:06.384Z,10.19
2023-05-14T21:30:32.945Z,10.18
2023-05-14T21:32:59.629Z,10.16
2023-05-14T21:35:26.558Z,10.21
2023-05-14T21:37:53.415Z,10.28
2023-05-14T21:40:19.986Z,10.27
2023-05-14T21:42:46.687Z,10.29
2023-05-14T21:45:13.342Z,10.27
2023-05-14T21:47:40.056Z,10.39
2023-05-14T21:50:07.339Z,10.14
2023-05-14T21:52:33.944Z,10.30
2023-05-14T21:55:00.667Z,10.36
2023-05-14T21:57:28.378Z,10.42
2023-05-14T21:59:55.599Z,10.42
2023-05-14T22:02:22.284Z,10.27
2023-05-14T22:04:49.048Z,10.24
2023-05-14T22:07:15.805Z,10.18
2023-05-14T22:09:42.485Z,10.21
2023-05-14T22:12:09.225Z,10.39
2023-05-14T22:14:36.016Z,10.35
2023-05-14T22:17:02.704Z,10.30
2023-05-14T22:19:29.401Z,10.33
2023-05-14T22:21:56.135Z,10.32
2023-05-14T22:24:22.789Z,10.37
2023-05-14T22:26:49.440Z,10.35
2023-05-14T22:29:16.136Z,10.26
2023-05-14T22:31:42.905Z,10.26
2023-05-14T22:34:09.579Z,10.26
2023-05-14T22:36:36.490Z,10.23
2023-05-14T22:39:03.523Z,10.24
2023-05-14T22:41:30.785Z,10.19
2023-05-14T22:43:57.418Z,10.24
2023-05-14T22:46:24.115Z,10.24
2023-05-14T22:48:51.161Z,10.30
2023-05-14T22:51:17.967Z,10.34
2023-05-14T22:53:45.446Z,10.35
2023-05-14T22:56:12.031Z,10.15
2023-05-14T22:58:38.762Z,10.21
2023-05-14T23:01:05.589Z,10.27
2023-05-14T23:03:32.301Z,10.15
2023-05-14T23:05:58.898Z,10.27
2023-05-14T23:08:25.554Z,10.02
2023-05-14T23:10:52.280Z,10.13
2023-05-14T23:13:19.339Z,10.19
2023-05-14T23:15:46.103Z,10.25
2023-05-14T23:18:12.854Z,10.22
2023-05-14T23:20:39.555Z,10.17
2023-05-14T23:23:06.518Z,10.18
2023-05-14T23:25:33.204Z,10.20
2023-05-14T23:27:59.969Z,10.13
2023-05-14T23:30:26.587Z,10.12
2023-05-14T23:32:53.320Z,10.11
2023-05-14T23:35:20.058Z,10.19
2023-05-14T23:37:49.478Z,10.32
2023-05-14T23:40:16.272Z,10.39
2023-05-14T23:42:43.503Z,10.27
2023-05-14T23:45:10.871Z,10.27
2023-05-14T23:47:37.539Z,10.29
2023-05-14T23:50:04.677Z,10.19
2023-05-14T23:52:31.332Z,10.15
2023-05-14T23:54:57.989Z,10.12
2023-05-14T23:57:24.686Z,10.06
2023-05-14T23:59:51.426Z,9.87
